Time;durP1;ratioP1;P1;durP2;ratioP2;P2;SDS_P1;SDS_P2;PMS_P1;PMS_P2;Temp;Humidity;BMP_temperature;BMP_pressure;BME280_temperature;BME280_humidity;BME280_pressure;Samples;Min_cycle;Max_cycle;Signal;HPM_P1;HPM_P2
2023/07/12 00:00:53;;;;;;;;;1.50;1.50;;;;;20.38;68.10;100848.91;5020987;28;8839;-68
2023/07/12 00:03:20;;;;;;;;;1.00;1.00;;;;;20.38;68.21;100855.19;5030620;28;9609;-69
2023/07/12 00:05:47;;;;;;;;;1.50;0.00;;;;;20.40;68.27;100849.44;5029439;28;8852;-68
2023/07/12 00:08:19;;;;;;;;;0.50;0.50;;;;;20.35;67.93;100847.50;5035826;28;8832;-66
2023/07/12 00:10:47;;;;;;;;;1.00;1.00;;;;;20.33;68.00;100832.41;5032750;28;8820;-68
2023/07/12 00:13:18;;;;;;;;;1.00;1.00;;;;;20.30;68.04;100831.06;5032444;28;9522;-68
2023/07/12 00:15:46;;;;;;;;;1.00;1.00;;;;;20.29;68.17;100825.81;5023820;28;8832;-65
2023/07/12 00:18:16;;;;;;;;;2.00;0.00;;;;;20.30;68.15;100813.81;5028173;28;8845;-65
2023/07/12 00:20:43;;;;;;;;;0.50;0.25;;;;;20.27;67.79;100820.63;5030060;28;8802;-65
2023/07/12 00:23:12;;;;;;;;;0.50;0.50;;;;;20.27;67.99;100819.81;5029343;28;8859;-67
2023/07/12 00:25:38;;;;;;;;;1.00;1.00;;;;;20.24;67.96;100818.41;5030098;28;8836;-67
2023/07/12 00:28:20;;;;;;;;;1.00;1.00;;;;;20.22;67.97;100817.84;5046203;28;8950;-68
2023/07/12 00:30:48;;;;;;;;;1.00;1.00;;;;;20.21;67.72;100822.47;5033486;28;8827;-68
2023/07/12 00:33:14;;;;;;;;;2.00;2.00;;;;;20.18;67.85;100822.19;5042149;28;8925;-66
2023/07/12 00:35:42;;;;;;;;;2.00;2.00;;;;;20.17;68.02;100818.59;5031258;28;8864;-67
2023/07/12 00:38:23;;;;;;;;;1.00;1.00;;;;;20.16;68.01;100811.50;5044100;28;8829;-65
2023/07/12 00:41:01;;;;;;;;;3.00;1.00;;;;;20.18;68.24;100816.72;5017309;28;8843;-65
2023/07/12 00:43:37;;;;;;;;;3.00;3.00;;;;;20.16;67.82;100822.44;5021912;28;8860;-64
2023/07/12 00:46:25;;;;;;;;;2.50;2.50;;;;;20.13;68.02;100814.75;5047113;28;8840;-67
2023/07/12 00:48:52;;;;;;;;;1.00;1.00;;;;;20.10;68.23;100811.72;5023676;28;8836;-65
2023/07/12 00:51:38;;;;;;;;;1.50;1.50;;;;;20.10;67.99;100807.06;5045057;28;8859;-64
2023/07/12 00:54:17;;;;;;;;;1.00;1.00;;;;;20.10;67.93;100804.34;5039078;28;8986;-64
2023/07/12 00:56:44;;;;;;;;;0.75;0.00;;;;;20.10;68.35;100798.88;5045779;28;8920;-67
2023/07/12 00:59:26;;;;;;;;;1.75;1.75;;;;;20.12;68.46;100804.91;5026954;28;8846;-65
2023/07/12 01:01:59;;;;;;;;;2.00;1.00;;;;;20.11;68.60;100797.78;5034086;28;8848;-64
2023/07/12 01:04:31;;;;;;;;;1.25;1.25;;;;;20.08;69.03;100787.38;5014785;28;8836;-66
2023/07/12 01:06:58;;;;;;;;;1.00;1.00;;;;;20.04;69.28;100769.84;5025798;28;8909;-64
2023/07/12 01:09:27;;;;;;;;;2.00;2.00;;;;;19.98;69.45;100759.97;5019267;28;8900;-65
2023/07/12 01:11:54;;;;;;;;;3.50;1.25;;;;;19.95;69.95;100793.25;5021964;28;8840;-66
2023/07/12 01:14:24;;;;;;;;;2.00;2.00;;;;;19.94;70.19;100786.16;5026898;28;8809;-67
2023/07/12 01:16:58;;;;;;;;;2.00;2.00;;;;;19.96;70.60;100794.91;5022613;28;8824;-67
2023/07/12 01:19:25;;;;;;;;;2.25;1.25;;;;;19.95;70.68;100793.25;5033810;28;8835;-67
2023/07/12 01:21:54;;;;;;;;;2.75;2.00;;;;;19.92;71.13;100797.31;5029965;28;8828;-66
2023/07/12 01:24:22;;;;;;;;;1.50;1.50;;;;;19.91;71.21;100806.59;5028487;28;8840;-65
2023/07/12 01:26:51;;;;;;;;;3.00;3.00;;;;;19.87;71.25;100804.66;5019331;28;8827;-67
2023/07/12 01:29:18;;;;;;;;;2.00;0.00;;;;;19.85;71.35;100784.94;5025154;28;8828;-67
2023/07/12 01:31:45;;;;;;;;;2.00;2.00;;;;;19.82;71.52;100769.09;5025261;28;8833;-66
2023/07/12 01:34:13;;;;;;;;;1.50;1.50;;;;;19.81;71.83;100811.97;5040953;28;8939;-65
2023/07/12 01:36:39;;;;;;;;;2.00;2.00;;;;;19.76;71.90;100829.09;5020691;28;8831;-67
2023/07/12 01:39:06;;;;;;;;;2.00;2.00;;;;;19.73;71.99;100843.28;5026463;28;8871;-67
2023/07/12 01:41:33;;;;;;;;;1.50;1.50;;;;;19.68;72.01;100845.94;5021607;28;8837;-67
2023/07/12 01:43:59;;;;;;;;;3.00;2.00;;;;;19.63;72.52;100845.88;5027066;28;8808;-67
2023/07/12 01:46:29;;;;;;;;;3.00;3.00;;;;;19.62;72.79;100846.16;5045393;28;8824;-66
2023/07/12 01:48:56;;;;;;;;;3.75;2.75;;;;;19.57;72.50;100833.22;5029684;28;8813;-67
2023/07/12 01:51:26;;;;;;;;;2.00;2.00;;;;;19.52;73.02;100823.03;5028511;28;8828;-67
2023/07/12 01:53:53;;;;;;;;;1.50;1.50;;;;;19.44;73.13;100814.47;5028830;28;8821;-67
2023/07/12 01:56:21;;;;;;;;;5.25;3.00;;;;;19.42;73.25;100816.66;5037110;28;8869;-67
2023/07/12 01:58:47;;;;;;;;;2.00;2.00;;;;;19.40;73.41;100800.50;5027982;28;9588;-67
2023/07/12 02:01:14;;;;;;;;;2.00;2.00;;;;;19.38;73.69;100789.03;5035950;28;8835;-68
2023/07/12 02:03:40;;;;;;;;;1.75;1.50;;;;;19.39;73.83;100800.78;5024770;28;8841;-67
2023/07/12 02:06:07;;;;;;;;;2.00;2.00;;;;;19.40;73.69;100813.34;5029324;28;8828;-68
2023/07/12 02:08:34;;;;;;;;;5.75;3.00;;;;;19.34;73.50;100814.38;5029989;28;8829;-67
2023/07/12 02:11:00;;;;;;;;;3.00;3.00;;;;;19.30;73.27;100802.31;5028897;28;8828;-67
2023/07/12 02:13:27;;;;;;;;;2.50;2.00;;;;;19.32;73.20;100773.66;5026654;28;8831;-67
2023/07/12 02:15:53;;;;;;;;;1.25;1.25;;;;;19.33;73.08;100778.06;5022766;28;8840;-67
2023/07/12 02:18:20;;;;;;;;;1.75;1.75;;;;;19.35;73.33;100783.25;5029109;28;8847;-67
2023/07/12 02:20:47;;;;;;;;;1.00;1.00;;;;;19.36;73.41;100766.59;5027635;28;8833;-66
2023/07/12 02:23:14;;;;;;;;;1.00;1.00;;;;;19.39;73.33;100768.00;5020683;28;8849;-67
2023/07/12 02:25:41;;;;;;;;;2.25;2.25;;;;;19.39;73.43;100760.66;5028363;28;8978;-67
2023/07/12 02:28:07;;;;;;;;;2.75;2.00;;;;;19.41;73.50;100763.97;5023488;28;8838;-66
2023/07/12 02:30:34;;;;;;;;;1.00;1.00;;;;;19.39;73.45;100762.56;5022190;28;8821;-66
2023/07/12 02:33:01;;;;;;;;;4.75;2.75;;;;;19.31;73.08;100772.00;5026575;28;8868;-67
2023/07/12 02:35:29;;;;;;;;;7.00;6.00;;;;;19.24;73.27;100776.81;5040452;28;8968;-67
2023/07/12 02:37:57;;;;;;;;;2.00;2.00;;;;;19.19;73.37;100768.59;5038963;28;9684;-66
2023/07/12 02:40:25;;;;;;;;;3.00;3.00;;;;;19.16;73.72;100769.09;5040586;28;8813;-65
2023/07/12 02:42:52;;;;;;;;;2.25;2.25;;;;;19.14;74.04;100765.78;5025646;28;8851;-65
2023/07/12 02:45:19;;;;;;;;;2.50;2.50;;;;;19.12;73.87;100768.78;5025146;28;9562;-68
2023/07/12 02:47:46;;;;;;;;;2.00;2.00;;;;;19.09;74.06;100774.75;5022886;28;8891;-68
2023/07/12 02:50:13;;;;;;;;;5.25;2.75;;;;;19.10;74.04;100776.38;5028169;28;8848;-63
2023/07/12 02:52:39;;;;;;;;;3.75;2.75;;;;;19.12;74.33;100779.69;5016980;28;8839;-67
2023/07/12 02:55:06;;;;;;;;;4.00;2.00;;;;;19.16;74.49;100782.72;5018642;28;8879;-68
2023/07/12 02:57:33;;;;;;;;;3.75;3.00;;;;;19.16;74.39;100782.72;5015593;28;8872;-68
2023/07/12 02:59:59;;;;;;;;;2.75;2.25;;;;;19.15;74.52;100787.34;5018689;28;9044;-68
2023/07/12 03:02:30;;;;;;;;;1.75;1.75;;;;;19.17;74.49;100790.69;5027569;28;8853;-67
2023/07/12 03:04:56;;;;;;;;;5.75;5.75;;;;;19.16;74.66;100788.19;5013940;28;8932;-64
2023/07/12 03:07:23;;;;;;;;;3.00;2.00;;;;;19.12;74.55;100787.88;5030684;28;8818;-67
2023/07/12 03:09:55;;;;;;;;;5.00;3.00;;;;;19.09;74.73;100774.75;5029076;28;8843;-67
2023/07/12 03:12:22;;;;;;;;;3.50;2.00;;;;;19.04;75.05;100774.69;5020735;28;8844;-68
2023/07/12 03:14:48;;;;;;;;;4.00;3.25;;;;;19.02;74.95;100771.38;5035440;28;8919;-68
2023/07/12 03:17:15;;;;;;;;;4.00;2.00;;;;;19.06;75.23;100777.97;5026910;28;8848;-67
2023/07/12 03:19:42;;;;;;;;;5.25;3.25;;;;;19.03;75.28;100778.47;5025810;28;8960;-68
2023/07/12 03:22:09;;;;;;;;;4.75;2.00;;;;;19.05;75.38;100784.50;5025802;28;8835;-68
2023/07/12 03:24:35;;;;;;;;;4.25;2.00;;;;;19.06;75.45;100788.88;5023128;28;8817;-68
2023/07/12 03:27:02;;;;;;;;;3.75;3.75;;;;;19.00;75.12;100788.00;5029068;28;8836;-68
2023/07/12 03:29:28;;;;;;;;;4.00;3.25;;;;;19.00;75.29;100770.81;5024976;28;8867;-68
2023/07/12 03:31:55;;;;;;;;;2.75;2.75;;;;;19.01;75.46;100769.72;5025274;28;8905;-68
2023/07/12 03:34:21;;;;;;;;;6.00;4.50;;;;;18.96;75.37;100772.38;5020035;28;8821;-67
2023/07/12 03:36:48;;;;;;;;;3.25;3.25;;;;;18.95;75.52;100778.91;5029661;28;8859;-68
2023/07/12 03:39:15;;;;;;;;;7.25;5.75;;;;;18.85;75.41;100779.59;5025938;28;8827;-68
2023/07/12 03:41:41;;;;;;;;;4.00;3.75;;;;;18.84;76.32;100779.81;5023254;28;8829;-66
2023/07/12 03:44:08;;;;;;;;;2.25;2.25;;;;;18.88;76.41;100784.56;5026130;28;8844;-68
2023/07/12 03:46:34;;;;;;;;;3.50;3.25;;;;;18.85;76.21;100779.59;5019606;28;8840;-68
2023/07/12 03:49:01;;;;;;;;;3.00;2.50;;;;;18.86;76.15;100788.59;5042506;28;8886;-69
2023/07/12 03:51:27;;;;;;;;;2.75;2.00;;;;;18.87;76.29;100788.34;5026994;28;9050;-69
2023/07/12 03:53:53;;;;;;;;;2.25;2.25;;;;;18.90;76.54;100785.09;5024301;28;8851;-66
2023/07/12 03:56:20;;;;;;;;;5.00;5.00;;;;;18.90;76.18;100795.19;5027577;28;8852;-66
2023/07/12 03:58:46;;;;;;;;;1.25;1.25;;;;;18.90;76.32;100795.19;5027448;28;9565;-67
2023/07/12 04:01:13;;;;;;;;;3.00;3.00;;;;;18.89;76.45;100799.00;5022098;28;8963;-66
2023/07/12 04:03:40;;;;;;;;;3.25;2.25;;;;;18.91;76.43;100783.19;5022927;28;8809;-66
2023/07/12 04:06:09;;;;;;;;;3.50;3.00;;;;;18.89;76.17;100796.28;5024008;28;8847;-67
2023/07/12 04:08:36;;;;;;;;;2.25;2.00;;;;;18.90;76.40;100797.94;5026341;28;9569;-68
2023/07/12 04:11:03;;;;;;;;;4.25;3.00;;;;;18.94;76.22;100799.91;5021117;28;8840;-67
2023/07/12 04:13:30;;;;;;;;;6.00;2.75;;;;;18.97;76.12;100804.03;5028568;28;8828;-67
2023/07/12 04:15:59;;;;;;;;;2.75;1.75;;;;;18.98;75.97;100800.22;5028585;28;8848;-66
2023/07/12 04:18:27;;;;;;;;;2.75;2.75;;;;;18.91;75.54;100805.03;5028158;28;8829;-67
2023/07/12 04:20:55;;;;;;;;;5.00;2.25;;;;;18.84;75.21;100813.41;5023448;28;8965;-67
2023/07/12 04:23:22;;;;;;;;;7.75;3.50;;;;;18.77;75.04;100810.00;5026801;28;8998;-67
2023/07/12 04:25:57;;;;;;;;;3.00;3.00;;;;;18.77;74.63;100819.00;5023721;28;8845;-67
2023/07/12 04:28:23;;;;;;;;;3.00;3.00;;;;;18.75;74.47;100820.31;5037620;28;8821;-67
2023/07/12 04:30:50;;;;;;;;;1.75;1.75;;;;;18.75;74.02;100812.97;5028593;28;9588;-67
2023/07/12 04:33:16;;;;;;;;;6.00;4.75;;;;;18.70;73.50;100826.53;5031985;28;8872;-67
2023/07/12 04:35:43;;;;;;;;;4.00;3.00;;;;;18.70;73.62;100831.16;5030338;28;8843;-67
2023/07/12 04:38:09;;;;;;;;;3.00;3.00;;;;;18.71;73.67;100822.72;5027747;28;8840;-67
2023/07/12 04:40:36;;;;;;;;;3.25;2.75;;;;;18.71;73.56;100825.44;5028260;28;8825;-68
2023/07/12 04:43:03;;;;;;;;;2.00;2.00;;;;;18.73;73.62;100831.50;5027600;28;8913;-68
2023/07/12 04:45:29;;;;;;;;;3.50;3.50;;;;;18.74;73.30;100827.69;5028250;28;8860;-66
2023/07/12 04:47:55;;;;;;;;;2.00;2.00;;;;;18.75;73.28;100821.16;5025212;28;8848;-67
2023/07/12 04:50:23;;;;;;;;;2.00;2.00;;;;;18.78;73.32;100817.13;5029688;28;8846;-68
2023/07/12 04:52:49;;;;;;;;;4.00;3.75;;;;;18.79;73.23;100824.22;5031936;28;8843;-67
2023/07/12 04:55:23;;;;;;;;;3.50;3.50;;;;;18.78;72.85;100823.38;5031432;28;8813;-67
2023/07/12 04:57:49;;;;;;;;;4.00;3.00;;;;;18.78;73.20;100830.75;5031278;28;8844;-66
2023/07/12 05:00:17;;;;;;;;;5.25;4.75;;;;;18.77;73.35;100831.84;5031286;28;8833;-67
2023/07/12 05:02:43;;;;;;;;;2.75;2.25;;;;;18.77;73.16;100827.19;5027431;28;8872;-68
2023/07/12 05:05:11;;;;;;;;;2.50;2.50;;;;;18.75;72.91;100828.50;5030814;28;8852;-67
2023/07/12 05:07:39;;;;;;;;;2.75;2.75;;;;;18.77;73.03;100829.09;5036282;28;8818;-69
2023/07/12 05:10:07;;;;;;;;;3.00;3.00;;;;;18.80;72.72;100830.47;5031613;28;9671;-67
2023/07/12 05:12:35;;;;;;;;;4.00;2.00;;;;;18.82;72.82;100842.00;5026030;28;8830;-68
2023/07/12 05:15:04;;;;;;;;;3.25;2.50;;;;;18.84;72.75;100843.41;5022941;28;8986;-69
2023/07/12 05:17:30;;;;;;;;;6.00;3.67;;;;;18.83;72.85;100852.63;5025815;28;8852;-69
2023/07/12 05:19:57;;;;;;;;;2.00;2.00;;;;;18.75;72.66;100853.88;5025158;28;9002;-68
2023/07/12 05:22:24;;;;;;;;;4.00;4.00;;;;;18.74;72.70;100852.22;5028070;28;8854;-70
2023/07/12 05:24:51;;;;;;;;;3.00;3.00;;;;;18.73;72.87;100838.84;5043159;28;8829;-68
2023/07/12 05:27:18;;;;;;;;;3.00;3.00;;;;;18.77;72.65;100840.00;5027496;28;8856;-67
2023/07/12 05:29:44;;;;;;;;;3.00;1.50;;;;;18.81;72.77;100835.72;5020069;28;8832;-67
2023/07/12 05:32:11;;;;;;;;;3.25;2.25;;;;;18.81;72.42;100841.16;5030683;28;8832;-67
2023/07/12 05:34:37;;;;;;;;;3.00;3.00;;;;;18.83;72.84;100836.28;5028295;28;8833;-68
2023/07/12 05:37:05;;;;;;;;;7.25;5.25;;;;;18.90;72.50;100842.38;5030915;28;8863;-68
2023/07/12 05:39:32;;;;;;;;;4.00;4.00;;;;;19.01;72.39;100852.38;5028901;28;8911;-68
2023/07/12 05:42:00;;;;;;;;;4.00;4.00;;;;;19.07;71.77;100849.72;5023946;28;8831;-67
2023/07/12 05:44:27;;;;;;;;;4.50;3.75;;;;;19.03;71.87;100852.94;5031532;28;8955;-67
2023/07/12 05:46:53;;;;;;;;;2.25;2.25;;;;;19.02;71.76;100859.50;5026775;28;8828;-68
2023/07/12 05:49:23;;;;;;;;;2.75;2.75;;;;;19.00;71.80;100848.00;5025473;28;8882;-66
2023/07/12 05:51:49;;;;;;;;;3.50;3.00;;;;;19.01;72.14;100860.56;5027416;28;8882;-67
2023/07/12 05:54:16;;;;;;;;;3.25;3.25;;;;;19.00;72.35;100853.47;5021007;28;8994;-68
2023/07/12 05:56:42;;;;;;;;;2.50;2.50;;;;;19.00;72.39;100858.09;5024854;28;8872;-68
2023/07/12 05:59:09;;;;;;;;;3.00;3.00;;;;;18.99;72.67;100850.97;5024131;28;9818;-68
2023/07/12 06:01:36;;;;;;;;;3.00;3.00;;;;;19.00;72.77;100863.56;5030695;28;9573;-68
2023/07/12 06:04:03;;;;;;;;;4.00;2.25;;;;;18.98;72.88;100866.53;5019220;28;8857;-68
2023/07/12 06:06:30;;;;;;;;;8.00;6.00;;;;;18.97;72.81;100864.06;5011348;28;8823;-68
2023/07/12 06:08:56;;;;;;;;;4.25;4.25;;;;;18.95;73.19;100867.00;5020509;28;8844;-65
2023/07/12 06:11:23;;;;;;;;;4.00;3.75;;;;;18.95;73.22;100868.91;5029524;28;8821;-66
2023/07/12 06:13:53;;;;;;;;;4.50;3.00;;;;;18.95;73.29;100882.56;5046130;28;8856;-65
2023/07/12 06:16:19;;;;;;;;;4.00;3.50;;;;;18.96;73.07;100878.78;5020956;28;8847;-65
2023/07/12 06:18:46;;;;;;;;;3.00;2.75;;;;;18.93;73.21;100890.19;5010077;28;8815;-66
2023/07/12 06:21:12;;;;;;;;;3.00;3.00;;;;;18.95;73.51;100885.28;5010691;28;8848;-66
2023/07/12 06:23:39;;;;;;;;;6.25;6.25;;;;;19.01;73.38;100878.84;5010218;28;9572;-66
2023/07/12 06:26:05;;;;;;;;;4.75;4.00;;;;;18.98;73.00;100880.16;5029142;28;9430;-66
2023/07/12 06:28:32;;;;;;;;;7.00;3.00;;;;;18.99;72.75;100884.53;5029101;28;8864;-67
2023/07/12 06:31:01;;;;;;;;;5.75;3.75;;;;;18.97;72.99;100886.69;5030195;28;8840;-65
2023/07/12 06:33:28;;;;;;;;;6.00;3.25;;;;;19.01;73.14;100881.56;5029357;28;8833;-67
2023/07/12 06:35:57;;;;;;;;;6.50;6.25;;;;;18.97;73.37;100889.44;5011752;28;8869;-65
2023/07/12 06:38:24;;;;;;;;;6.00;4.00;;;;;19.02;73.61;100896.84;5010651;28;8843;-66
2023/07/12 06:40:50;;;;;;;;;4.50;3.00;;;;;19.02;73.75;100903.13;5025581;28;8927;-65
2023/07/12 06:43:17;;;;;;;;;5.00;4.25;;;;;19.01;73.43;100901.50;5009437;28;8913;-67
2023/07/12 06:45:45;;;;;;;;;6.75;4.00;;;;;19.05;73.25;100903.72;5026943;28;8836;-65
2023/07/12 06:48:12;;;;;;;;;3.00;3.00;;;;;19.09;72.94;100900.25;5030330;28;8832;-65
2023/07/12 06:50:39;;;;;;;;;3.75;3.75;;;;;19.12;73.23;100899.75;5029731;28;8825;-67
2023/07/12 06:53:06;;;;;;;;;7.00;4.50;;;;;19.13;72.97;100906.03;5030192;28;8844;-65
2023/07/12 06:55:32;;;;;;;;;6.00;6.00;;;;;19.14;72.56;100913.97;5014850;28;8865;-67
2023/07/12 06:57:59;;;;;;;;;4.25;4.00;;;;;19.17;72.46;100918.09;5009872;28;8843;-66
2023/07/12 07:00:25;;;;;;;;;3.75;3.75;;;;;19.18;72.23;100912.41;5025066;28;8848;-64
2023/07/12 07:02:52;;;;;;;;;5.50;4.00;;;;;19.21;72.15;100905.63;5028933;28;9007;-66
2023/07/12 07:05:19;;;;;;;;;6.75;5.00;;;;;19.29;72.46;100904.38;5023804;28;8813;-66
2023/07/12 07:07:45;;;;;;;;;2.00;2.00;;;;;19.29;72.18;100910.66;5014690;28;8847;-65
2023/07/12 07:10:12;;;;;;;;;6.00;4.25;;;;;19.23;72.01;100917.09;5010504;28;8913;-66
2023/07/12 07:12:39;;;;;;;;;4.00;4.00;;;;;19.20;72.03;100912.97;5039646;28;8833;-66
2023/07/12 07:15:06;;;;;;;;;5.75;4.25;;;;;19.14;71.92;100924.88;5030098;28;8851;-66
2023/07/12 07:17:33;;;;;;;;;5.75;5.75;;;;;19.07;71.55;100920.66;5029983;28;8824;-67
2023/07/12 07:19:59;;;;;;;;;5.50;3.50;;;;;19.07;71.20;100923.41;5029938;28;8903;-67
2023/07/12 07:22:25;;;;;;;;;6.25;5.50;;;;;19.10;71.32;100926.44;5018165;28;8918;-66
2023/07/12 07:24:52;;;;;;;;;3.25;3.25;;;;;19.17;71.16;100927.13;5010144;28;8875;-66
2023/07/12 07:27:19;;;;;;;;;3.00;3.00;;;;;19.24;71.05;100916.00;5028253;28;8931;-66
2023/07/12 07:29:45;;;;;;;;;2.50;2.50;;;;;19.32;70.79;100928.41;5028945;28;8828;-66
2023/07/12 07:32:12;;;;;;;;;2.00;2.00;;;;;19.39;70.80;100937.25;5016920;28;8847;-67
2023/07/12 07:34:38;;;;;;;;;4.75;3.75;;;;;19.37;70.46;100934.78;5008315;28;8846;-66
2023/07/12 07:37:05;;;;;;;;;3.75;2.50;;;;;19.33;70.05;100933.66;5010013;28;8839;-66
2023/07/12 07:39:31;;;;;;;;;2.25;1.25;;;;;19.36;69.83;100944.03;5009780;28;8835;-68
2023/07/12 07:42:00;;;;;;;;;4.50;3.50;;;;;19.43;69.59;100944.69;5017698;28;8859;-66
2023/07/12 07:44:27;;;;;;;;;7.25;3.50;;;;;19.40;69.21;100950.66;5029634;28;8888;-65
2023/07/12 07:46:54;;;;;;;;;4.50;2.75;;;;;19.39;68.95;100945.44;5028074;28;8836;-67
2023/07/12 07:49:20;;;;;;;;;5.00;4.00;;;;;19.41;68.66;100965.16;5029698;28;8813;-66
2023/07/12 07:51:47;;;;;;;;;1.75;1.75;;;;;19.41;68.55;100956.97;5037752;28;8823;-67
2023/07/12 07:54:14;;;;;;;;;2.00;1.50;;;;;19.40;68.58;100977.13;5009836;28;9556;-66
2023/07/12 07:56:41;;;;;;;;;1.50;1.50;;;;;19.54;68.99;100963.97;5008506;28;8962;-66
2023/07/12 07:59:08;;;;;;;;;4.50;2.50;;;;;19.62;68.36;100975.31;5013785;28;8827;-66
2023/07/12 08:01:35;;;;;;;;;3.50;3.50;;;;;19.61;68.86;100976.41;5033475;28;8825;-65
2023/07/12 08:04:03;;;;;;;;;3.75;3.75;;;;;19.71;68.68;100975.72;5048748;28;8868;-66
2023/07/12 08:06:30;;;;;;;;;4.00;3.00;;;;;19.72;68.72;100970.00;5032014;28;8836;-67
2023/07/12 08:08:56;;;;;;;;;6.00;4.00;;;;;19.76;68.74;100979.34;5031815;28;9616;-68
2023/07/12 08:11:23;;;;;;;;;4.00;4.00;;;;;19.72;68.75;100982.81;5042517;28;8819;-67
2023/07/12 08:13:49;;;;;;;;;6.75;4.00;;;;;19.72;68.82;100991.00;5013299;28;8823;-67
2023/07/12 08:16:16;;;;;;;;;3.75;3.75;;;;;19.75;67.83;100988.63;5013336;28;8899;-66
2023/07/12 08:18:42;;;;;;;;;2.75;2.75;;;;;19.79;67.76;100993.56;5012978;28;8838;-68
2023/07/12 08:21:11;;;;;;;;;1.50;1.25;;;;;19.81;66.97;100997.72;5014234;28;8847;-65
2023/07/12 08:23:38;;;;;;;;;2.50;2.00;;;;;19.84;66.80;101008.13;5012970;28;8901;-66
2023/07/12 08:26:04;;;;;;;;;2.00;2.00;;;;;19.82;66.40;100996.63;5015225;28;9581;-66
2023/07/12 08:28:31;;;;;;;;;3.00;3.00;;;;;19.83;66.09;100997.47;5032639;28;8839;-68
2023/07/12 08:30:57;;;;;;;;;2.75;2.75;;;;;19.87;65.73;100995.88;5028497;28;8838;-67
2023/07/12 08:33:24;;;;;;;;;4.25;3.75;;;;;19.92;65.87;101001.41;5028161;28;8847;-67
2023/07/12 08:35:50;;;;;;;;;3.00;3.00;;;;;19.92;65.65;101006.88;5013010;28;9572;-66
2023/07/12 08:38:18;;;;;;;;;2.50;2.50;;;;;19.97;65.19;101006.94;5012853;28;9149;-67
2023/07/12 08:40:48;;;;;;;;;3.00;3.00;;;;;19.97;65.03;101010.50;5012980;28;9653;-66
2023/07/12 08:43:27;;;;;;;;;4.75;4.00;;;;;20.01;64.18;101013.53;5032417;28;9833;-67
2023/07/12 08:45:56;;;;;;;;;1.75;1.75;;;;;20.06;64.12;101019.09;5032247;28;9654;-67
2023/07/12 08:48:24;;;;;;;;;2.00;2.00;;;;;20.13;64.21;101019.72;5031094;28;8894;-68
2023/07/12 08:50:51;;;;;;;;;1.00;1.00;;;;;20.20;64.11;101025.81;5025270;28;8847;-67
2023/07/12 08:53:22;;;;;;;;;3.00;2.25;;;;;20.18;63.64;101028.00;5009962;28;8849;-67
2023/07/12 08:55:50;;;;;;;;;3.00;3.00;;;;;20.19;63.30;101037.84;5012348;28;8839;-66
2023/07/12 08:58:21;;;;;;;;;4.50;3.00;;;;;20.15;62.77;101033.97;5011259;28;8948;-68
2023/07/12 09:01:01;;;;;;;;;1.00;1.00;;;;;20.23;62.98;101032.72;5016266;28;8844;-67
2023/07/12 09:03:28;;;;;;;;;2.75;1.50;;;;;20.30;63.06;101041.56;5030739;28;8836;-67
2023/07/12 09:05:55;;;;;;;;;2.00;2.00;;;;;20.37;63.37;101046.81;5030160;28;8837;-68
2023/07/12 09:08:32;;;;;;;;;1.75;1.75;;;;;20.38;63.74;101057.50;5030738;28;8832;-66
2023/07/12 09:10:59;;;;;;;;;8.00;3.75;;;;;20.34;64.36;101050.91;5021813;28;8849;-67
2023/07/12 09:13:39;;;;;;;;;3.25;2.00;;;;;20.32;64.30;101053.03;5039053;28;8845;-67
2023/07/12 09:16:24;;;;;;;;;4.25;4.25;;;;;20.32;64.62;101049.50;5043706;28;8856;-67
2023/07/12 09:18:53;;;;;;;;;2.50;2.50;;;;;20.30;64.50;101062.59;5028080;28;8848;-68
2023/07/12 09:21:26;;;;;;;;;2.00;2.00;;;;;20.32;64.72;101060.41;5030858;28;8951;-66
2023/07/12 09:24:01;;;;;;;;;3.25;3.25;;;;;20.33;64.46;101056.59;5030675;28;8911;-69
2023/07/12 09:26:30;;;;;;;;;4.25;3.25;;;;;20.27;64.61;101058.47;5018274;28;8933;-67
2023/07/12 09:29:04;;;;;;;;;4.25;3.50;;;;;20.21;64.60;101060.28;5011899;28;9659;-66
2023/07/12 09:31:34;;;;;;;;;2.00;2.00;;;;;20.17;64.63;101061.03;5032381;28;9570;-67
2023/07/12 09:34:05;;;;;;;;;4.25;4.00;;;;;20.14;64.56;101062.38;5022557;28;8916;-66
2023/07/12 09:36:38;;;;;;;;;2.25;2.00;;;;;20.12;64.58;101059.06;5025772;28;8945;-66
2023/07/12 09:39:06;;;;;;;;;5.25;2.50;;;;;20.09;64.32;101062.28;5020130;28;8862;-65
2023/07/12 09:41:32;;;;;;;;;5.00;3.00;;;;;20.13;64.27;101068.91;5019988;28;10058;-67
2023/07/12 09:44:01;;;;;;;;;4.00;3.25;;;;;20.13;64.19;101062.63;5018292;28;8917;-67
2023/07/12 09:46:31;;;;;;;;;3.75;3.00;;;;;20.10;64.06;101071.34;5019994;28;8827;-67
2023/07/12 09:49:13;;;;;;;;;2.50;1.50;;;;;20.08;63.88;101073.50;5024913;28;8831;-68
2023/07/12 09:51:51;;;;;;;;;2.00;2.00;;;;;20.02;63.97;101064.41;5034542;28;8831;-67
2023/07/12 09:54:33;;;;;;;;;2.00;2.00;;;;;20.08;63.81;101060.66;5023643;28;8951;-67
2023/07/12 09:57:34;;;;;;;;;1.00;1.00;;;;;20.22;63.45;101072.06;5020625;28;8868;-67
2023/07/12 10:00:11;;;;;;;;;1.00;1.00;;;;;20.29;63.60;101069.13;5024885;28;8848;-67
2023/07/12 10:02:47;;;;;;;;;2.25;1.25;;;;;20.40;63.41;101066.28;5021305;28;8828;-69
2023/07/12 10:05:19;;;;;;;;;2.75;2.00;;;;;20.41;62.79;101081.59;5019778;28;9608;-68
2023/07/12 10:07:57;;;;;;;;;2.75;2.75;;;;;20.28;61.92;101072.94;5019800;28;8917;-67
2023/07/12 10:10:45;;;;;;;;;1.25;1.25;;;;;20.27;62.46;101072.13;5034069;28;9017;-66
2023/07/12 10:13:30;;;;;;;;;2.25;2.00;;;;;20.27;62.26;101074.03;5021624;28;8836;-67
2023/07/12 10:15:59;;;;;;;;;2.25;2.25;;;;;20.22;62.03;101075.63;5017074;28;8847;-69
2023/07/12 10:18:29;;;;;;;;;2.00;2.00;;;;;20.20;62.00;101077.75;5020929;28;8905;-69
2023/07/12 10:20:57;;;;;;;;;2.75;2.00;;;;;20.17;61.65;101075.53;5022046;28;8913;-67
2023/07/12 10:23:28;;;;;;;;;2.00;2.00;;;;;20.22;61.63;101069.31;5029871;28;8863;-66
2023/07/12 10:25:57;;;;;;;;;1.25;1.25;;;;;20.32;61.53;101072.19;5038829;28;8835;-67
2023/07/12 10:28:36;;;;;;;;;2.00;2.00;;;;;20.35;61.05;101081.78;5027335;28;8871;-67
2023/07/12 10:31:14;;;;;;;;;1.00;1.00;;;;;20.31;60.29;101075.19;5028731;28;8844;-68
2023/07/12 10:33:45;;;;;;;;;2.25;2.25;;;;;20.27;60.16;101082.22;5031233;28;8821;-68
2023/07/12 10:36:19;;;;;;;;;3.50;2.50;;;;;20.22;60.36;101092.03;5030170;28;8859;-65
2023/07/12 10:38:47;;;;;;;;;1.75;0.75;;;;;20.23;60.59;101080.00;5030999;28;8922;-66
2023/07/12 10:41:28;;;;;;;;;2.50;1.50;;;;;20.29;60.07;101086.34;5042543;28;8824;-68
2023/07/12 10:44:14;;;;;;;;;1.50;1.50;;;;;20.42;60.18;101087.91;5026824;28;8890;-71
2023/07/12 10:46:45;;;;;;;;;1.00;1.00;;;;;20.41;59.02;101091.69;5024673;28;8821;-67
2023/07/12 10:49:14;;;;;;;;;2.00;2.00;;;;;20.44;58.38;101091.19;5030114;28;8872;-68
2023/07/12 10:51:44;;;;;;;;;0.75;0.75;;;;;20.53;58.26;101092.44;5032984;28;8829;-68
2023/07/12 10:54:31;;;;;;;;;1.00;1.00;;;;;20.57;57.95;101101.78;5030034;28;8817;-67
2023/07/12 10:57:21;;;;;;;;;2.00;0.75;;;;;20.63;57.86;101102.69;5018961;28;8849;-67
2023/07/12 10:59:59;;;;;;;;;1.75;1.00;;;;;20.76;57.58;101110.50;5046827;28;9613;-67
2023/07/12 11:02:32;;;;;;;;;0.50;0.50;;;;;20.92;57.20;101117.00;5026004;28;8874;-67
2023/07/12 11:04:59;;;;;;;;;1.75;1.75;;;;;20.89;56.34;101121.06;5045023;28;8947;-67
2023/07/12 11:07:25;;;;;;;;;2.00;1.00;;;;;21.02;56.97;101125.28;5028725;28;8840;-67
2023/07/12 11:09:52;;;;;;;;;2.00;2.00;;;;;21.03;57.32;101123.41;5029551;28;8833;-67
2023/07/12 11:12:30;;;;;;;;;2.00;1.50;;;;;20.98;57.60;101118.69;5027991;28;8840;-68
2023/07/12 11:15:04;;;;;;;;;2.25;1.75;;;;;21.02;57.36;101125.28;5028915;28;8840;-69
2023/07/12 11:17:50;;;;;;;;;1.00;1.00;;;;;21.09;56.67;101130.56;5039687;28;8829;-68
2023/07/12 11:20:25;;;;;;;;;2.00;1.00;;;;;21.03;56.09;101126.97;5045471;28;9457;-69
2023/07/12 11:23:29;;;;;;;;;1.25;1.00;;;;;21.07;56.33;101139.06;5013865;28;8831;-68
2023/07/12 11:26:02;;;;;;;;;1.00;1.00;;;;;21.06;56.30;101139.31;5018898;28;8851;-69
2023/07/12 11:28:40;;;;;;;;;1.00;1.00;;;;;21.05;56.64;101143.13;5008939;28;8839;-68
2023/07/12 11:31:23;;;;;;;;;1.00;1.00;;;;;20.99;56.96;101140.34;5010013;28;8839;-68
2023/07/12 11:33:55;;;;;;;;;2.00;2.00;;;;;20.96;57.09;101132.63;5013812;28;8843;-69
2023/07/12 11:36:25;;;;;;;;;2.00;1.00;;;;;20.93;56.79;101151.47;5012804;28;8830;-68
2023/07/12 11:38:54;;;;;;;;;1.25;1.25;;;;;20.87;57.23;101144.31;5013936;28;8924;-66
2023/07/12 11:41:24;;;;;;;;;1.00;1.00;;;;;20.87;57.49;101147.88;5033704;28;9558;-65
2023/07/12 11:43:59;;;;;;;;;1.25;1.25;;;;;20.97;57.13;101147.13;5043217;28;8842;-67